sensor_id;sensor_type;location;lat;lon;timestamp;temperature;humidity
66271;DHT22;53063;39.614;8.814;2023-09-19T00:01:40;23.50;81.60
66271;DHT22;53063;39.614;8.814;2023-09-19T00:04:08;23.40;82.40
66271;DHT22;53063;39.614;8.814;2023-09-19T00:06:44;23.40;83.10
66271;DHT22;53063;39.614;8.814;2023-09-19T00:09:10;23.30;83.70
66271;DHT22;53063;39.614;8.814;2023-09-19T00:11:37;23.30;84.10
66271;DHT22;53063;39.614;8.814;2023-09-19T00:14:04;23.20;84.30
66271;DHT22;53063;39.614;8.814;2023-09-19T00:16:34;23.20;84.60
66271;DHT22;53063;39.614;8.814;2023-09-19T00:19:01;23.20;85.30
66271;DHT22;53063;39.614;8.814;2023-09-19T00:21:33;23.10;86.00
66271;DHT22;53063;39.614;8.814;2023-09-19T00:23:59;23.10;86.50
66271;DHT22;53063;39.614;8.814;2023-09-19T00:26:25;23.00;86.80
66271;DHT22;53063;39.614;8.814;2023-09-19T00:28:54;22.90;87.30
66271;DHT22;53063;39.614;8.814;2023-09-19T00:31:20;22.80;88.10
66271;DHT22;53063;39.614;8.814;2023-09-19T00:33:51;22.80;88.50
66271;DHT22;53063;39.614;8.814;2023-09-19T00:36:17;22.80;88.60
66271;DHT22;53063;39.614;8.814;2023-09-19T00:38:44;23.00;88.20
66271;DHT22;53063;39.614;8.814;2023-09-19T00:41:11;22.90;87.90
66271;DHT22;53063;39.614;8.814;2023-09-19T00:43:38;22.80;87.70
66271;DHT22;53063;39.614;8.814;2023-09-19T00:46:06;22.90;87.50
66271;DHT22;53063;39.614;8.814;2023-09-19T00:48:41;22.80;87.50
66271;DHT22;53063;39.614;8.814;2023-09-19T00:51:10;23.00;88.30
66271;DHT22;53063;39.614;8.814;2023-09-19T00:53:36;23.30;88.30
66271;DHT22;53063;39.614;8.814;2023-09-19T00:56:03;23.50;87.60
66271;DHT22;53063;39.614;8.814;2023-09-19T00:58:34;23.40;87.50
66271;DHT22;53063;39.614;8.814;2023-09-19T01:01:01;23.30;87.40
66271;DHT22;53063;39.614;8.814;2023-09-19T01:03:29;23.30;87.40
66271;DHT22;53063;39.614;8.814;2023-09-19T01:05:55;23.20;86.90
66271;DHT22;53063;39.614;8.814;2023-09-19T01:08:21;23.10;87.00
66271;DHT22;53063;39.614;8.814;2023-09-19T01:10:52;23.00;86.90
66271;DHT22;53063;39.614;8.814;2023-09-19T01:13:28;22.80;86.50
66271;DHT22;53063;39.614;8.814;2023-09-19T01:18:55;22.60;87.70
66271;DHT22;53063;39.614;8.814;2023-09-19T01:21:40;22.60;88.70
66271;DHT22;53063;39.614;8.814;2023-09-19T01:29:49;22.50;93.10
66271;DHT22;53063;39.614;8.814;2023-09-19T01:32:22;22.50;93.70
66271;DHT22;53063;39.614;8.814;2023-09-19T01:34:56;22.50;94.00
66271;DHT22;53063;39.614;8.814;2023-09-19T01:37:24;22.40;93.30
66271;DHT22;53063;39.614;8.814;2023-09-19T01:42:54;22.50;91.50
66271;DHT22;53063;39.614;8.814;2023-09-19T01:45:36;22.70;90.90
66271;DHT22;53063;39.614;8.814;2023-09-19T01:51:00;23.40;89.50
66271;DHT22;53063;39.614;8.814;2023-09-19T01:53:33;23.50;88.40
66271;DHT22;53063;39.614;8.814;2023-09-19T01:55:59;23.50;87.90
66271;DHT22;53063;39.614;8.814;2023-09-19T01:58:41;23.60;86.90
66271;DHT22;53063;39.614;8.814;2023-09-19T02:01:12;23.60;86.10
66271;DHT22;53063;39.614;8.814;2023-09-19T02:03:41;23.60;85.30
66271;DHT22;53063;39.614;8.814;2023-09-19T02:06:07;23.40;85.50
66271;DHT22;53063;39.614;8.814;2023-09-19T02:08:37;23.20;86.10
66271;DHT22;53063;39.614;8.814;2023-09-19T02:11:03;23.20;86.50
66271;DHT22;53063;39.614;8.814;2023-09-19T02:13:29;23.10;86.80
66271;DHT22;53063;39.614;8.814;2023-09-19T02:15:57;22.90;86.90
66271;DHT22;53063;39.614;8.814;2023-09-19T02:18:23;22.70;87.70
66271;DHT22;53063;39.614;8.814;2023-09-19T02:20:49;22.60;88.50
66271;DHT22;53063;39.614;8.814;2023-09-19T02:23:17;22.60;89.10
66271;DHT22;53063;39.614;8.814;2023-09-19T02:25:43;22.60;89.50
66271;DHT22;53063;39.614;8.814;2023-09-19T02:28:16;22.50;90.10
66271;DHT22;53063;39.614;8.814;2023-09-19T02:30:42;22.40;90.90
66271;DHT22;53063;39.614;8.814;2023-09-19T02:33:08;22.40;91.40
66271;DHT22;53063;39.614;8.814;2023-09-19T02:35:34;22.30;91.80
66271;DHT22;53063;39.614;8.814;2023-09-19T02:38:02;22.30;92.30
66271;DHT22;53063;39.614;8.814;2023-09-19T02:40:32;22.20;92.80
66271;DHT22;53063;39.614;8.814;2023-09-19T02:43:01;22.20;93.20
66271;DHT22;53063;39.614;8.814;2023-09-19T02:45:28;22.30;93.60
66271;DHT22;53063;39.614;8.814;2023-09-19T02:47:54;22.30;93.10
66271;DHT22;53063;39.614;8.814;2023-09-19T02:50:20;22.30;92.70
66271;DHT22;53063;39.614;8.814;2023-09-19T02:52:47;22.20;92.30
66271;DHT22;53063;39.614;8.814;2023-09-19T02:55:16;22.30;92.00
66271;DHT22;53063;39.614;8.814;2023-09-19T02:57:55;22.50;91.50
66271;DHT22;53063;39.614;8.814;2023-09-19T03:00:22;22.70;90.10
66271;DHT22;53063;39.614;8.814;2023-09-19T03:02:49;22.60;89.20
66271;DHT22;53063;39.614;8.814;2023-09-19T03:05:16;22.50;89.20
66271;DHT22;53063;39.614;8.814;2023-09-19T03:07:42;22.40;89.20
66271;DHT22;53063;39.614;8.814;2023-09-19T03:10:13;22.50;89.40
66271;DHT22;53063;39.614;8.814;2023-09-19T03:12:41;22.50;89.00
66271;DHT22;53063;39.614;8.814;2023-09-19T03:15:08;22.50;87.40
66271;DHT22;53063;39.614;8.814;2023-09-19T03:17:35;22.10;87.50
66271;DHT22;53063;39.614;8.814;2023-09-19T03:20:03;22.00;88.20
66271;DHT22;53063;39.614;8.814;2023-09-19T03:22:34;22.00;89.30
66271;DHT22;53063;39.614;8.814;2023-09-19T03:25:00;21.90;90.10
66271;DHT22;53063;39.614;8.814;2023-09-19T03:27:27;21.90;90.80
66271;DHT22;53063;39.614;8.814;2023-09-19T03:29:53;22.00;91.40
66271;DHT22;53063;39.614;8.814;2023-09-19T03:32:19;22.20;91.60
66271;DHT22;53063;39.614;8.814;2023-09-19T03:34:45;22.20;91.80
66271;DHT22;53063;39.614;8.814;2023-09-19T03:37:15;22.30;91.90
66271;DHT22;53063;39.614;8.814;2023-09-19T03:39:41;22.30;91.60
66271;DHT22;53063;39.614;8.814;2023-09-19T03:42:07;22.20;91.90
66271;DHT22;53063;39.614;8.814;2023-09-19T03:44:34;22.30;92.40
66271;DHT22;53063;39.614;8.814;2023-09-19T03:47:00;22.30;92.10
66271;DHT22;53063;39.614;8.814;2023-09-19T03:49:26;22.40;92.30
66271;DHT22;53063;39.614;8.814;2023-09-19T03:51:52;22.40;92.00
66271;DHT22;53063;39.614;8.814;2023-09-19T03:54:18;22.50;91.50
66271;DHT22;53063;39.614;8.814;2023-09-19T03:56:45;22.60;90.90
66271;DHT22;53063;39.614;8.814;2023-09-19T03:59:11;22.60;90.40
66271;DHT22;53063;39.614;8.814;2023-09-19T04:01:38;22.70;90.00
66271;DHT22;53063;39.614;8.814;2023-09-19T04:04:07;22.60;89.90
66271;DHT22;53063;39.614;8.814;2023-09-19T04:06:37;22.60;90.30
66271;DHT22;53063;39.614;8.814;2023-09-19T04:09:03;22.40;90.60
66271;DHT22;53063;39.614;8.814;2023-09-19T04:11:30;22.40;90.90
66271;DHT22;53063;39.614;8.814;2023-09-19T04:13:57;22.30;91.40
66271;DHT22;53063;39.614;8.814;2023-09-19T04:16:22;22.30;91.40
66271;DHT22;53063;39.614;8.814;2023-09-19T04:18:48;22.30;91.30
66271;DHT22;53063;39.614;8.814;2023-09-19T04:21:14;22.20;91.00
66271;DHT22;53063;39.614;8.814;2023-09-19T04:23:40;22.30;90.80
66271;DHT22;53063;39.614;8.814;2023-09-19T04:26:06;22.30;90.20
66271;DHT22;53063;39.614;8.814;2023-09-19T04:28:32;22.10;90.40
66271;DHT22;53063;39.614;8.814;2023-09-19T04:31:00;22.30;90.50
66271;DHT22;53063;39.614;8.814;2023-09-19T04:33:26;22.20;90.10
66271;DHT22;53063;39.614;8.814;2023-09-19T04:35:55;22.40;89.40
66271;DHT22;53063;39.614;8.814;2023-09-19T04:38:21;22.40;88.50
66271;DHT22;53063;39.614;8.814;2023-09-19T04:40:48;22.50;88.00
66271;DHT22;53063;39.614;8.814;2023-09-19T04:43:13;22.40;87.50
66271;DHT22;53063;39.614;8.814;2023-09-19T04:45:41;22.40;87.30
66271;DHT22;53063;39.614;8.814;2023-09-19T04:48:06;22.30;87.00
66271;DHT22;53063;39.614;8.814;2023-09-19T04:50:34;22.20;86.90
66271;DHT22;53063;39.614;8.814;2023-09-19T04:53:00;22.20;87.40
66271;DHT22;53063;39.614;8.814;2023-09-19T04:55:26;22.10;87.00
66271;DHT22;53063;39.614;8.814;2023-09-19T04:57:53;21.90;87.40
66271;DHT22;53063;39.614;8.814;2023-09-19T05:00:22;21.90;87.90
66271;DHT22;53063;39.614;8.814;2023-09-19T05:02:55;22.20;86.70
66271;DHT22;53063;39.614;8.814;2023-09-19T05:05:22;22.30;85.60
66271;DHT22;53063;39.614;8.814;2023-09-19T05:07:49;22.40;85.10
66271;DHT22;53063;39.614;8.814;2023-09-19T05:10:16;22.40;84.00
66271;DHT22;53063;39.614;8.814;2023-09-19T05:12:44;22.30;83.70
66271;DHT22;53063;39.614;8.814;2023-09-19T05:15:13;22.20;84.50
66271;DHT22;53063;39.614;8.814;2023-09-19T05:17:50;22.20;84.50
66271;DHT22;53063;39.614;8.814;2023-09-19T05:20:17;22.10;84.10
66271;DHT22;53063;39.614;8.814;2023-09-19T05:23:05;22.20;82.90
66271;DHT22;53063;39.614;8.814;2023-09-19T05:25:34;22.20;82.40
66271;DHT22;53063;39.614;8.814;2023-09-19T05:28:09;22.00;83.00
66271;DHT22;53063;39.614;8.814;2023-09-19T05:30:36;21.90;83.90
66271;DHT22;53063;39.614;8.814;2023-09-19T05:33:02;21.80;85.40
66271;DHT22;53063;39.614;8.814;2023-09-19T05:35:30;21.50;86.90
66271;DHT22;53063;39.614;8.814;2023-09-19T05:37:56;21.30;87.80
66271;DHT22;53063;39.614;8.814;2023-09-19T05:40:24;21.30;87.60
66271;DHT22;53063;39.614;8.814;2023-09-19T05:42:51;21.40;87.30
66271;DHT22;53063;39.614;8.814;2023-09-19T05:45:17;21.50;86.70
66271;DHT22;53063;39.614;8.814;2023-09-19T05:47:49;21.60;85.70
66271;DHT22;53063;39.614;8.814;2023-09-19T05:50:15;21.80;85.00
66271;DHT22;53063;39.614;8.814;2023-09-19T05:52:42;21.70;84.30
66271;DHT22;53063;39.614;8.814;2023-09-19T05:55:11;21.80;84.50
66271;DHT22;53063;39.614;8.814;2023-09-19T05:57:37;21.80;83.60
66271;DHT22;53063;39.614;8.814;2023-09-19T06:00:08;22.00;82.90
66271;DHT22;53063;39.614;8.814;2023-09-19T06:02:39;22.30;82.00
66271;DHT22;53063;39.614;8.814;2023-09-19T06:05:06;22.50;81.20
66271;DHT22;53063;39.614;8.814;2023-09-19T06:07:37;22.60;80.90
66271;DHT22;53063;39.614;8.814;2023-09-19T06:10:05;22.60;81.10
66271;DHT22;53063;39.614;8.814;2023-09-19T06:12:32;22.50;80.90
66271;DHT22;53063;39.614;8.814;2023-09-19T06:14:59;22.60;81.30
66271;DHT22;53063;39.614;8.814;2023-09-19T06:17:25;22.70;81.30
66271;DHT22;53063;39.614;8.814;2023-09-19T06:19:53;22.90;80.80
66271;DHT22;53063;39.614;8.814;2023-09-19T06:22:19;23.10;79.50
66271;DHT22;53063;39.614;8.814;2023-09-19T06:24:45;23.10;78.60
66271;DHT22;53063;39.614;8.814;2023-09-19T06:27:12;23.20;78.40
66271;DHT22;53063;39.614;8.814;2023-09-19T06:29:39;23.30;78.30
66271;DHT22;53063;39.614;8.814;2023-09-19T06:32:08;23.30;77.60
66271;DHT22;53063;39.614;8.814;2023-09-19T06:34:35;23.50;77.10
66271;DHT22;53063;39.614;8.814;2023-09-19T06:37:00;23.70;76.10
66271;DHT22;53063;39.614;8.814;2023-09-19T06:39:26;23.90;74.20
66271;DHT22;53063;39.614;8.814;2023-09-19T06:41:52;24.10;72.90
66271;DHT22;53063;39.614;8.814;2023-09-19T06:44:21;24.30;70.90
66271;DHT22;53063;39.614;8.814;2023-09-19T06:46:50;24.50;69.70
66271;DHT22;53063;39.614;8.814;2023-09-19T06:49:17;24.70;68.50
66271;DHT22;53063;39.614;8.814;2023-09-19T06:51:43;24.80;67.70
66271;DHT22;53063;39.614;8.814;2023-09-19T06:54:10;24.70;67.00
66271;DHT22;53063;39.614;8.814;2023-09-19T06:56:36;24.80;67.20
66271;DHT22;53063;39.614;8.814;2023-09-19T06:59:01;24.90;66.40
66271;DHT22;53063;39.614;8.814;2023-09-19T07:01:29;25.20;65.00
66271;DHT22;53063;39.614;8.814;2023-09-19T07:03:55;25.30;65.40
66271;DHT22;53063;39.614;8.814;2023-09-19T07:06:21;25.60;66.20
66271;DHT22;53063;39.614;8.814;2023-09-19T07:08:46;25.80;66.10
66271;DHT22;53063;39.614;8.814;2023-09-19T07:11:12;26.00;65.30
66271;DHT22;53063;39.614;8.814;2023-09-19T07:13:38;25.90;65.10
66271;DHT22;53063;39.614;8.814;2023-09-19T07:16:04;25.80;65.20
66271;DHT22;53063;39.614;8.814;2023-09-19T07:18:31;25.80;65.40
66271;DHT22;53063;39.614;8.814;2023-09-19T07:20:58;25.90;65.60
66271;DHT22;53063;39.614;8.814;2023-09-19T07:23:30;26.10;63.80
66271;DHT22;53063;39.614;8.814;2023-09-19T07:26:01;26.40;63.50
66271;DHT22;53063;39.614;8.814;2023-09-19T07:28:27;26.40;63.20
66271;DHT22;53063;39.614;8.814;2023-09-19T07:30:54;26.50;62.70
66271;DHT22;53063;39.614;8.814;2023-09-19T07:33:20;26.70;62.30
66271;DHT22;53063;39.614;8.814;2023-09-19T07:35:46;26.90;61.90
66271;DHT22;53063;39.614;8.814;2023-09-19T07:38:13;27.00;61.70
66271;DHT22;53063;39.614;8.814;2023-09-19T07:40:39;27.20;60.80
66271;DHT22;53063;39.614;8.814;2023-09-19T07:43:05;27.20;60.70
66271;DHT22;53063;39.614;8.814;2023-09-19T07:45:32;27.20;61.00
66271;DHT22;53063;39.614;8.814;2023-09-19T07:47:59;27.40;60.00
66271;DHT22;53063;39.614;8.814;2023-09-19T07:50:30;27.40;59.50
66271;DHT22;53063;39.614;8.814;2023-09-19T07:52:56;27.70;59.20
66271;DHT22;53063;39.614;8.814;2023-09-19T07:55:22;27.90;57.20
66271;DHT22;53063;39.614;8.814;2023-09-19T07:57:54;27.80;57.90
66271;DHT22;53063;39.614;8.814;2023-09-19T08:00:20;27.90;58.10
66271;DHT22;53063;39.614;8.814;2023-09-19T08:02:46;28.30;57.50
66271;DHT22;53063;39.614;8.814;2023-09-19T08:05:13;28.50;55.70
66271;DHT22;53063;39.614;8.814;2023-09-19T08:07:43;28.40;55.80
66271;DHT22;53063;39.614;8.814;2023-09-19T08:10:11;28.50;55.90
66271;DHT22;53063;39.614;8.814;2023-09-19T08:12:42;28.60;55.50
66271;DHT22;53063;39.614;8.814;2023-09-19T08:17:39;28.90;53.80
66271;DHT22;53063;39.614;8.814;2023-09-19T08:20:05;29.10;53.00
66271;DHT22;53063;39.614;8.814;2023-09-19T08:22:32;29.20;52.80
66271;DHT22;53063;39.614;8.814;2023-09-19T08:24:58;29.40;52.50
66271;DHT22;53063;39.614;8.814;2023-09-19T08:27:24;29.40;52.20
66271;DHT22;53063;39.614;8.814;2023-09-19T08:29:53;29.50;52.80
66271;DHT22;53063;39.614;8.814;2023-09-19T08:32:19;29.80;51.70
66271;DHT22;53063;39.614;8.814;2023-09-19T08:34:50;29.90;50.70
66271;DHT22;53063;39.614;8.814;2023-09-19T08:37:15;29.70;51.40
66271;DHT22;53063;39.614;8.814;2023-09-19T08:39:43;29.30;52.30
66271;DHT22;53063;39.614;8.814;2023-09-19T08:42:10;28.90;54.10
66271;DHT22;53063;39.614;8.814;2023-09-19T08:44:37;28.90;54.00
66271;DHT22;53063;39.614;8.814;2023-09-19T08:47:10;29.10;53.70
66271;DHT22;53063;39.614;8.814;2023-09-19T08:50:01;29.30;52.80
66271;DHT22;53063;39.614;8.814;2023-09-19T08:52:39;29.40;52.80
66271;DHT22;53063;39.614;8.814;2023-09-19T08:55:07;29.40;53.70
66271;DHT22;53063;39.614;8.814;2023-09-19T08:57:38;29.40;55.80
66271;DHT22;53063;39.614;8.814;2023-09-19T09:00:08;29.30;55.00
66271;DHT22;53063;39.614;8.814;2023-09-19T09:02:38;28.90;55.00
66271;DHT22;53063;39.614;8.814;2023-09-19T09:05:10;29.00;55.00
66271;DHT22;53063;39.614;8.814;2023-09-19T09:07:40;28.80;55.20
66271;DHT22;53063;39.614;8.814;2023-09-19T09:10:07;28.80;55.40
66271;DHT22;53063;39.614;8.814;2023-09-19T09:12:35;28.70;55.20
66271;DHT22;53063;39.614;8.814;2023-09-19T09:15:02;28.90;54.80
66271;DHT22;53063;39.614;8.814;2023-09-19T09:17:30;29.00;55.20
66271;DHT22;53063;39.614;8.814;2023-09-19T09:19:56;29.00;54.10
66271;DHT22;53063;39.614;8.814;2023-09-19T09:22:22;28.90;54.30
66271;DHT22;53063;39.614;8.814;2023-09-19T09:24:54;28.90;54.10
66271;DHT22;53063;39.614;8.814;2023-09-19T09:27:20;28.90;54.60
66271;DHT22;53063;39.614;8.814;2023-09-19T09:29:48;29.10;54.00
66271;DHT22;53063;39.614;8.814;2023-09-19T09:34:49;29.30;52.20
66271;DHT22;53063;39.614;8.814;2023-09-19T09:37:16;29.20;53.10
66271;DHT22;53063;39.614;8.814;2023-09-19T09:39:59;29.10;54.00
66271;DHT22;53063;39.614;8.814;2023-09-19T09:42:44;29.00;54.00
66271;DHT22;53063;39.614;8.814;2023-09-19T09:45:18;29.20;52.20
66271;DHT22;53063;39.614;8.814;2023-09-19T09:48:03;29.00;51.90
66271;DHT22;53063;39.614;8.814;2023-09-19T09:50:31;29.10;52.90
66271;DHT22;53063;39.614;8.814;2023-09-19T09:53:23;29.20;52.40
66271;DHT22;53063;39.614;8.814;2023-09-19T09:56:06;29.60;51.80
66271;DHT22;53063;39.614;8.814;2023-09-19T09:58:50;29.90;52.00
66271;DHT22;53063;39.614;8.814;2023-09-19T10:01:20;30.00;51.00
66271;DHT22;53063;39.614;8.814;2023-09-19T10:03:46;29.70;50.40
66271;DHT22;53063;39.614;8.814;2023-09-19T10:06:17;29.60;51.50
66271;DHT22;53063;39.614;8.814;2023-09-19T10:09:09;29.40;51.70
66271;DHT22;53063;39.614;8.814;2023-09-19T10:11:46;29.50;51.20
66271;DHT22;53063;39.614;8.814;2023-09-19T10:14:16;29.80;52.50
66271;DHT22;53063;39.614;8.814;2023-09-19T10:16:47;30.10;50.20
66271;DHT22;53063;39.614;8.814;2023-09-19T10:19:23;30.30;49.80
66271;DHT22;53063;39.614;8.814;2023-09-19T10:21:50;30.30;49.90
66271;DHT22;53063;39.614;8.814;2023-09-19T10:24:19;30.30;49.40
66271;DHT22;53063;39.614;8.814;2023-09-19T10:26:46;30.30;49.30
66271;DHT22;53063;39.614;8.814;2023-09-19T10:29:17;30.40;49.40
66271;DHT22;53063;39.614;8.814;2023-09-19T10:31:47;30.40;49.20
66271;DHT22;53063;39.614;8.814;2023-09-19T10:34:17;30.30;49.50
66271;DHT22;53063;39.614;8.814;2023-09-19T10:36:46;30.70;48.50
66271;DHT22;53063;39.614;8.814;2023-09-19T10:39:16;30.70;47.20
66271;DHT22;53063;39.614;8.814;2023-09-19T10:41:53;30.60;48.60
66271;DHT22;53063;39.614;8.814;2023-09-19T10:44:25;30.60;49.00
66271;DHT22;53063;39.614;8.814;2023-09-19T10:46:54;30.70;47.40
66271;DHT22;53063;39.614;8.814;2023-09-19T10:49:21;30.50;47.20
66271;DHT22;53063;39.614;8.814;2023-09-19T10:51:52;30.90;49.40
66271;DHT22;53063;39.614;8.814;2023-09-19T10:54:23;31.20;48.00
66271;DHT22;53063;39.614;8.814;2023-09-19T10:56:53;31.20;48.00
66271;DHT22;53063;39.614;8.814;2023-09-19T10:59:21;31.50;47.00
66271;DHT22;53063;39.614;8.814;2023-09-19T11:01:52;32.10;45.40
66271;DHT22;53063;39.614;8.814;2023-09-19T11:04:31;32.50;44.20
66271;DHT22;53063;39.614;8.814;2023-09-19T11:07:10;33.00;44.20
66271;DHT22;53063;39.614;8.814;2023-09-19T11:09:52;32.80;43.70
66271;DHT22;53063;39.614;8.814;2023-09-19T11:14:57;33.00;43.30
66271;DHT22;53063;39.614;8.814;2023-09-19T11:17:42;33.40;42.60
66271;DHT22;53063;39.614;8.814;2023-09-19T11:30:34;33.10;41.20
66271;DHT22;53063;39.614;8.814;2023-09-19T11:33:34;33.20;39.20
66271;DHT22;53063;39.614;8.814;2023-09-19T11:36:10;33.80;36.80
66271;DHT22;53063;39.614;8.814;2023-09-19T11:46:52;33.80;39.10
66271;DHT22;53063;39.614;8.814;2023-09-19T11:49:45;33.50;38.30
66271;DHT22;53063;39.614;8.814;2023-09-19T11:52:12;33.70;38.50
66271;DHT22;53063;39.614;8.814;2023-09-19T11:54:55;33.80;38.40
66271;DHT22;53063;39.614;8.814;2023-09-19T11:57:22;34.70;38.50
66271;DHT22;53063;39.614;8.814;2023-09-19T11:59:49;34.60;37.80
66271;DHT22;53063;39.614;8.814;2023-09-19T12:02:36;34.80;37.00
66271;DHT22;53063;39.614;8.814;2023-09-19T12:05:05;34.40;38.00
66271;DHT22;53063;39.614;8.814;2023-09-19T12:07:44;33.70;37.10
66271;DHT22;53063;39.614;8.814;2023-09-19T12:10:14;33.60;37.70
66271;DHT22;53063;39.614;8.814;2023-09-19T12:12:47;33.90;38.00
66271;DHT22;53063;39.614;8.814;2023-09-19T12:15:22;33.70;36.30
66271;DHT22;53063;39.614;8.814;2023-09-19T12:17:48;33.80;37.90
66271;DHT22;53063;39.614;8.814;2023-09-19T12:20:14;34.00;36.60
66271;DHT22;53063;39.614;8.814;2023-09-19T12:22:46;34.00;36.50
66271;DHT22;53063;39.614;8.814;2023-09-19T12:25:13;33.90;36.10
66271;DHT22;53063;39.614;8.814;2023-09-19T12:27:42;34.00;36.60
66271;DHT22;53063;39.614;8.814;2023-09-19T12:30:10;34.30;35.90
66271;DHT22;53063;39.614;8.814;2023-09-19T12:32:39;34.40;36.30
66271;DHT22;53063;39.614;8.814;2023-09-19T12:35:09;34.70;35.20
66271;DHT22;53063;39.614;8.814;2023-09-19T12:37:44;34.50;36.20
66271;DHT22;53063;39.614;8.814;2023-09-19T12:40:21;34.50;37.10
66271;DHT22;53063;39.614;8.814;2023-09-19T12:42:54;34.40;37.40
66271;DHT22;53063;39.614;8.814;2023-09-19T12:45:33;34.20;37.30
66271;DHT22;53063;39.614;8.814;2023-09-19T12:48:23;34.10;38.10
66271;DHT22;53063;39.614;8.814;2023-09-19T12:51:08;34.20;37.70
66271;DHT22;53063;39.614;8.814;2023-09-19T12:53:41;34.40;38.00
66271;DHT22;53063;39.614;8.814;2023-09-19T12:56:16;34.20;41.00
66271;DHT22;53063;39.614;8.814;2023-09-19T13:01:26;33.80;45.10
66271;DHT22;53063;39.614;8.814;2023-09-19T13:04:15;33.50;44.30
66271;DHT22;53063;39.614;8.814;2023-09-19T13:06:47;33.80;43.60
66271;DHT22;53063;39.614;8.814;2023-09-19T13:09:24;33.70;44.10
66271;DHT22;53063;39.614;8.814;2023-09-19T13:11:54;33.50;44.60
66271;DHT22;53063;39.614;8.814;2023-09-19T13:14:23;33.20;45.20
66271;DHT22;53063;39.614;8.814;2023-09-19T13:17:05;33.20;45.30
66271;DHT22;53063;39.614;8.814;2023-09-19T13:19:57;33.50;45.00
66271;DHT22;53063;39.614;8.814;2023-09-19T13:22:39;33.80;42.90
66271;DHT22;53063;39.614;8.814;2023-09-19T13:25:10;33.50;42.30
66271;DHT22;53063;39.614;8.814;2023-09-19T13:27:45;33.20;42.50
66271;DHT22;53063;39.614;8.814;2023-09-19T13:30:14;33.10;41.20
66271;DHT22;53063;39.614;8.814;2023-09-19T13:32:41;33.20;41.50
66271;DHT22;53063;39.614;8.814;2023-09-19T13:35:09;33.20;41.90
66271;DHT22;53063;39.614;8.814;2023-09-19T13:37:38;33.10;42.30
66271;DHT22;53063;39.614;8.814;2023-09-19T13:40:15;32.80;44.60
66271;DHT22;53063;39.614;8.814;2023-09-19T13:42:42;32.50;45.70
66271;DHT22;53063;39.614;8.814;2023-09-19T13:45:09;32.40;45.90
66271;DHT22;53063;39.614;8.814;2023-09-19T13:47:38;32.60;45.20
66271;DHT22;53063;39.614;8.814;2023-09-19T13:50:05;32.90;44.30
66271;DHT22;53063;39.614;8.814;2023-09-19T13:52:31;32.60;46.40
66271;DHT22;53063;39.614;8.814;2023-09-19T13:54:58;32.40;47.10
66271;DHT22;53063;39.614;8.814;2023-09-19T13:57:25;32.20;47.90
66271;DHT22;53063;39.614;8.814;2023-09-19T13:59:52;32.10;46.00
66271;DHT22;53063;39.614;8.814;2023-09-19T14:02:23;32.00;47.50
66271;DHT22;53063;39.614;8.814;2023-09-19T14:04:49;32.20;47.70
66271;DHT22;53063;39.614;8.814;2023-09-19T14:07:16;32.30;47.60
66271;DHT22;53063;39.614;8.814;2023-09-19T14:09:43;32.20;47.40
66271;DHT22;53063;39.614;8.814;2023-09-19T14:12:09;32.30;47.40
66271;DHT22;53063;39.614;8.814;2023-09-19T14:14:35;32.30;47.60
66271;DHT22;53063;39.614;8.814;2023-09-19T14:17:03;32.20;47.30
66271;DHT22;53063;39.614;8.814;2023-09-19T14:19:30;32.10;47.40
66271;DHT22;53063;39.614;8.814;2023-09-19T14:21:56;32.00;48.20
66271;DHT22;53063;39.614;8.814;2023-09-19T14:24:22;31.90;47.40
66271;DHT22;53063;39.614;8.814;2023-09-19T14:26:48;32.00;47.50
66271;DHT22;53063;39.614;8.814;2023-09-19T14:29:15;32.00;47.90
66271;DHT22;53063;39.614;8.814;2023-09-19T14:31:42;32.00;47.50
66271;DHT22;53063;39.614;8.814;2023-09-19T14:34:08;31.80;46.70
66271;DHT22;53063;39.614;8.814;2023-09-19T14:36:38;31.70;46.70
66271;DHT22;53063;39.614;8.814;2023-09-19T14:39:04;31.80;46.80
66271;DHT22;53063;39.614;8.814;2023-09-19T14:41:30;31.60;46.90
66271;DHT22;53063;39.614;8.814;2023-09-19T14:43:57;31.50;47.80
66271;DHT22;53063;39.614;8.814;2023-09-19T14:46:23;31.70;47.70
66271;DHT22;53063;39.614;8.814;2023-09-19T14:48:52;31.40;48.10
66271;DHT22;53063;39.614;8.814;2023-09-19T14:51:19;31.50;49.30
66271;DHT22;53063;39.614;8.814;2023-09-19T14:53:45;31.50;49.30
66271;DHT22;53063;39.614;8.814;2023-09-19T14:56:12;31.40;49.10
66271;DHT22;53063;39.614;8.814;2023-09-19T14:58:41;31.30;47.70
66271;DHT22;53063;39.614;8.814;2023-09-19T15:01:09;31.10;48.80
66271;DHT22;53063;39.614;8.814;2023-09-19T15:03:39;31.10;49.90
66271;DHT22;53063;39.614;8.814;2023-09-19T15:06:12;31.00;51.40
66271;DHT22;53063;39.614;8.814;2023-09-19T15:08:45;30.70;51.80
66271;DHT22;53063;39.614;8.814;2023-09-19T15:11:19;30.80;49.10
66271;DHT22;53063;39.614;8.814;2023-09-19T15:13:47;30.70;50.10
66271;DHT22;53063;39.614;8.814;2023-09-19T15:16:14;30.70;48.10
66271;DHT22;53063;39.614;8.814;2023-09-19T15:18:41;30.70;48.40
66271;DHT22;53063;39.614;8.814;2023-09-19T15:21:09;30.70;49.90
66271;DHT22;53063;39.614;8.814;2023-09-19T15:23:36;30.70;53.20
66271;DHT22;53063;39.614;8.814;2023-09-19T15:26:04;30.60;54.50
66271;DHT22;53063;39.614;8.814;2023-09-19T15:28:31;30.60;54.50
66271;DHT22;53063;39.614;8.814;2023-09-19T15:31:05;30.40;54.40
66271;DHT22;53063;39.614;8.814;2023-09-19T15:33:32;30.30;53.10
66271;DHT22;53063;39.614;8.814;2023-09-19T15:36:05;30.30;55.00
66271;DHT22;53063;39.614;8.814;2023-09-19T15:41:13;29.80;58.50
66271;DHT22;53063;39.614;8.814;2023-09-19T15:43:39;29.70;60.90
66271;DHT22;53063;39.614;8.814;2023-09-19T15:46:05;29.50;61.80
66271;DHT22;53063;39.614;8.814;2023-09-19T15:48:31;29.40;62.40
66271;DHT22;53063;39.614;8.814;2023-09-19T15:51:02;29.20;63.40
66271;DHT22;53063;39.614;8.814;2023-09-19T15:53:29;29.20;63.80
66271;DHT22;53063;39.614;8.814;2023-09-19T15:56:05;29.10;63.10
66271;DHT22;53063;39.614;8.814;2023-09-19T15:58:32;29.00;63.10
66271;DHT22;53063;39.614;8.814;2023-09-19T16:01:07;29.10;61.80
66271;DHT22;53063;39.614;8.814;2023-09-19T16:03:50;29.20;61.00
66271;DHT22;53063;39.614;8.814;2023-09-19T16:06:20;29.10;59.40
66271;DHT22;53063;39.614;8.814;2023-09-19T16:08:50;29.00;58.40
66271;DHT22;53063;39.614;8.814;2023-09-19T16:11:17;29.10;58.10
66271;DHT22;53063;39.614;8.814;2023-09-19T16:13:43;29.00;57.20
66271;DHT22;53063;39.614;8.814;2023-09-19T16:16:13;29.10;56.80
66271;DHT22;53063;39.614;8.814;2023-09-19T16:18:55;29.00;56.40
66271;DHT22;53063;39.614;8.814;2023-09-19T16:21:28;28.90;56.30
66271;DHT22;53063;39.614;8.814;2023-09-19T16:23:56;28.80;56.50
66271;DHT22;53063;39.614;8.814;2023-09-19T16:26:23;28.80;56.70
66271;DHT22;53063;39.614;8.814;2023-09-19T16:28:51;28.80;56.00
66271;DHT22;53063;39.614;8.814;2023-09-19T16:31:17;28.80;56.20